sensor_id;sensor_type;location;lat;lon;timestamp;P1;durP1;ratioP1;P2;durP2;ratioP2
48161;SDS011;33950;48.154;16.316;2022-07-24T00:02:18;6.88;;;5.13;;
48161;SDS011;33950;48.154;16.316;2022-07-24T00:04:43;7.60;;;4.50;;
48161;SDS011;33950;48.154;16.316;2022-07-24T00:07:09;13.80;;;5.15;;
48161;SDS011;33950;48.154;16.316;2022-07-24T00:09:35;10.05;;;5.00;;
48161;SDS011;33950;48.154;16.316;2022-07-24T00:12:01;5.65;;;4.43;;
48161;SDS011;33950;48.154;16.316;2022-07-24T00:14:28;6.20;;;4.85;;
48161;SDS011;33950;48.154;16.316;2022-07-24T00:16:54;6.00;;;4.40;;
48161;SDS011;33950;48.154;16.316;2022-07-24T00:19:20;8.70;;;5.22;;
48161;SDS011;33950;48.154;16.316;2022-07-24T00:21:46;7.47;;;4.68;;
48161;SDS011;33950;48.154;16.316;2022-07-24T00:24:12;7.97;;;5.47;;
48161;SDS011;33950;48.154;16.316;2022-07-24T00:26:37;6.47;;;4.63;;
48161;SDS011;33950;48.154;16.316;2022-07-24T00:29:03;5.53;;;4.18;;
48161;SDS011;33950;48.154;16.316;2022-07-24T00:31:30;5.90;;;4.45;;
48161;SDS011;33950;48.154;16.316;2022-07-24T00:33:56;5.70;;;4.32;;
48161;SDS011;33950;48.154;16.316;2022-07-24T00:36:22;7.80;;;4.65;;
48161;SDS011;33950;48.154;16.316;2022-07-24T00:38:48;6.30;;;4.65;;
48161;SDS011;33950;48.154;16.316;2022-07-24T00:41:14;7.10;;;5.20;;
48161;SDS011;33950;48.154;16.316;2022-07-24T00:43:59;6.15;;;4.93;;
48161;SDS011;33950;48.154;16.316;2022-07-24T00:46:31;6.95;;;4.93;;
48161;SDS011;33950;48.154;16.316;2022-07-24T00:48:58;8.73;;;4.68;;
48161;SDS011;33950;48.154;16.316;2022-07-24T00:51:24;9.75;;;5.35;;
48161;SDS011;33950;48.154;16.316;2022-07-24T00:53:49;9.07;;;5.15;;
48161;SDS011;33950;48.154;16.316;2022-07-24T00:56:16;9.52;;;4.50;;
48161;SDS011;33950;48.154;16.316;2022-07-24T00:58:41;5.45;;;4.65;;
48161;SDS011;33950;48.154;16.316;2022-07-24T01:01:07;7.45;;;4.55;;
48161;SDS011;33950;48.154;16.316;2022-07-24T01:03:34;6.70;;;5.20;;
48161;SDS011;33950;48.154;16.316;2022-07-24T01:06:00;5.70;;;4.72;;
48161;SDS011;33950;48.154;16.316;2022-07-24T01:08:26;9.60;;;5.25;;
48161;SDS011;33950;48.154;16.316;2022-07-24T01:10:52;6.95;;;4.38;;
48161;SDS011;33950;48.154;16.316;2022-07-24T01:13:18;10.93;;;4.97;;
48161;SDS011;33950;48.154;16.316;2022-07-24T01:15:45;7.47;;;5.47;;
48161;SDS011;33950;48.154;16.316;2022-07-24T01:18:11;5.32;;;4.60;;
48161;SDS011;33950;48.154;16.316;2022-07-24T01:20:38;5.57;;;4.72;;
48161;SDS011;33950;48.154;16.316;2022-07-24T01:23:04;9.95;;;5.05;;
48161;SDS011;33950;48.154;16.316;2022-07-24T01:25:30;8.50;;;4.82;;
48161;SDS011;33950;48.154;16.316;2022-07-24T01:27:57;7.53;;;5.15;;
48161;SDS011;33950;48.154;16.316;2022-07-24T01:30:23;9.73;;;5.20;;
48161;SDS011;33950;48.154;16.316;2022-07-24T01:32:49;8.10;;;5.28;;
48161;SDS011;33950;48.154;16.316;2022-07-24T01:35:15;8.52;;;5.78;;
48161;SDS011;33950;48.154;16.316;2022-07-24T01:37:43;9.88;;;5.40;;
48161;SDS011;33950;48.154;16.316;2022-07-24T01:40:09;8.15;;;5.28;;
48161;SDS011;33950;48.154;16.316;2022-07-24T01:42:35;11.55;;;5.40;;
48161;SDS011;33950;48.154;16.316;2022-07-24T01:45:01;10.30;;;4.93;;
48161;SDS011;33950;48.154;16.316;2022-07-24T01:47:27;7.53;;;5.45;;
48161;SDS011;33950;48.154;16.316;2022-07-24T01:49:53;10.73;;;5.43;;
48161;SDS011;33950;48.154;16.316;2022-07-24T01:52:19;8.75;;;6.05;;
48161;SDS011;33950;48.154;16.316;2022-07-24T01:54:46;11.48;;;5.45;;
48161;SDS011;33950;48.154;16.316;2022-07-24T01:57:12;9.93;;;4.85;;
48161;SDS011;33950;48.154;16.316;2022-07-24T01:59:38;7.68;;;5.38;;
48161;SDS011;33950;48.154;16.316;2022-07-24T02:02:04;9.57;;;5.80;;
48161;SDS011;33950;48.154;16.316;2022-07-24T02:04:29;10.07;;;5.90;;
48161;SDS011;33950;48.154;16.316;2022-07-24T02:06:55;6.70;;;5.80;;
48161;SDS011;33950;48.154;16.316;2022-07-24T02:09:21;5.53;;;4.90;;
48161;SDS011;33950;48.154;16.316;2022-07-24T02:11:48;6.55;;;5.15;;
48161;SDS011;33950;48.154;16.316;2022-07-24T02:14:14;8.27;;;5.95;;
48161;SDS011;33950;48.154;16.316;2022-07-24T02:16:40;12.80;;;5.70;;
48161;SDS011;33950;48.154;16.316;2022-07-24T02:19:05;8.65;;;5.50;;
48161;SDS011;33950;48.154;16.316;2022-07-24T02:21:31;9.00;;;5.38;;
48161;SDS011;33950;48.154;16.316;2022-07-24T02:23:57;7.53;;;5.40;;
48161;SDS011;33950;48.154;16.316;2022-07-24T02:26:23;11.95;;;6.00;;
48161;SDS011;33950;48.154;16.316;2022-07-24T02:28:50;8.52;;;5.53;;
48161;SDS011;33950;48.154;16.316;2022-07-24T02:31:16;9.90;;;5.38;;
48161;SDS011;33950;48.154;16.316;2022-07-24T02:33:42;12.75;;;6.43;;
48161;SDS011;33950;48.154;16.316;2022-07-24T02:36:08;7.75;;;5.95;;
48161;SDS011;33950;48.154;16.316;2022-07-24T02:38:34;7.60;;;6.15;;
48161;SDS011;33950;48.154;16.316;2022-07-24T02:40:59;7.63;;;5.72;;
48161;SDS011;33950;48.154;16.316;2022-07-24T02:43:25;8.10;;;5.50;;
48161;SDS011;33950;48.154;16.316;2022-07-24T02:45:52;8.05;;;6.25;;
48161;SDS011;33950;48.154;16.316;2022-07-24T02:48:18;7.05;;;6.20;;
48161;SDS011;33950;48.154;16.316;2022-07-24T02:50:44;13.50;;;7.28;;
48161;SDS011;33950;48.154;16.316;2022-07-24T02:53:10;9.00;;;6.53;;
48161;SDS011;33950;48.154;16.316;2022-07-24T02:55:36;11.25;;;6.15;;
48161;SDS011;33950;48.154;16.316;2022-07-24T02:58:02;9.80;;;6.93;;
48161;SDS011;33950;48.154;16.316;2022-07-24T03:00:28;7.93;;;6.55;;
48161;SDS011;33950;48.154;16.316;2022-07-24T03:02:56;7.40;;;6.13;;
48161;SDS011;33950;48.154;16.316;2022-07-24T03:05:22;9.20;;;6.35;;
48161;SDS011;33950;48.154;16.316;2022-07-24T03:07:48;12.05;;;6.75;;
48161;SDS011;33950;48.154;16.316;2022-07-24T03:10:14;11.07;;;6.53;;
48161;SDS011;33950;48.154;16.316;2022-07-24T03:12:41;8.02;;;6.57;;
48161;SDS011;33950;48.154;16.316;2022-07-24T03:15:07;10.43;;;7.07;;
48161;SDS011;33950;48.154;16.316;2022-07-24T03:17:34;8.82;;;6.45;;
48161;SDS011;33950;48.154;16.316;2022-07-24T03:20:01;8.20;;;7.07;;
48161;SDS011;33950;48.154;16.316;2022-07-24T03:22:28;9.68;;;6.93;;
48161;SDS011;33950;48.154;16.316;2022-07-24T03:24:54;11.85;;;7.13;;
48161;SDS011;33950;48.154;16.316;2022-07-24T03:27:20;8.57;;;6.97;;
48161;SDS011;33950;48.154;16.316;2022-07-24T03:29:46;14.60;;;7.68;;
48161;SDS011;33950;48.154;16.316;2022-07-24T03:32:11;11.15;;;6.93;;
48161;SDS011;33950;48.154;16.316;2022-07-24T03:34:37;9.30;;;7.07;;
48161;SDS011;33950;48.154;16.316;2022-07-24T03:37:04;10.25;;;6.75;;
48161;SDS011;33950;48.154;16.316;2022-07-24T03:39:30;7.78;;;6.95;;
48161;SDS011;33950;48.154;16.316;2022-07-24T03:41:56;14.10;;;7.72;;
48161;SDS011;33950;48.154;16.316;2022-07-24T03:44:22;7.43;;;6.63;;
48161;SDS011;33950;48.154;16.316;2022-07-24T03:46:48;10.90;;;6.90;;
48161;SDS011;33950;48.154;16.316;2022-07-24T03:49:13;9.68;;;7.45;;
48161;SDS011;33950;48.154;16.316;2022-07-24T03:51:39;9.38;;;7.38;;
48161;SDS011;33950;48.154;16.316;2022-07-24T03:54:06;9.45;;;7.18;;
48161;SDS011;33950;48.154;16.316;2022-07-24T03:56:32;11.52;;;7.50;;
48161;SDS011;33950;48.154;16.316;2022-07-24T03:58:58;9.50;;;7.55;;
48161;SDS011;33950;48.154;16.316;2022-07-24T04:01:24;10.05;;;8.20;;
48161;SDS011;33950;48.154;16.316;2022-07-24T04:03:49;9.23;;;7.22;;
48161;SDS011;33950;48.154;16.316;2022-07-24T04:06:15;8.40;;;7.40;;
48161;SDS011;33950;48.154;16.316;2022-07-24T04:08:41;14.02;;;7.45;;
48161;SDS011;33950;48.154;16.316;2022-07-24T04:11:08;12.95;;;7.97;;
48161;SDS011;33950;48.154;16.316;2022-07-24T04:13:34;15.93;;;8.23;;
48161;SDS011;33950;48.154;16.316;2022-07-24T04:16:00;10.80;;;8.02;;
48161;SDS011;33950;48.154;16.316;2022-07-24T04:18:26;10.95;;;9.05;;
48161;SDS011;33950;48.154;16.316;2022-07-24T04:20:51;10.85;;;8.35;;
48161;SDS011;33950;48.154;16.316;2022-07-24T04:23:17;11.68;;;7.35;;
48161;SDS011;33950;48.154;16.316;2022-07-24T04:25:43;12.65;;;7.72;;
48161;SDS011;33950;48.154;16.316;2022-07-24T04:28:11;10.88;;;8.25;;
48161;SDS011;33950;48.154;16.316;2022-07-24T04:30:37;11.57;;;8.30;;
48161;SDS011;33950;48.154;16.316;2022-07-24T04:33:03;9.75;;;7.88;;
48161;SDS011;33950;48.154;16.316;2022-07-24T04:35:29;9.57;;;7.38;;
48161;SDS011;33950;48.154;16.316;2022-07-24T04:37:54;10.82;;;8.40;;
48161;SDS011;33950;48.154;16.316;2022-07-24T04:40:20;10.48;;;8.48;;
48161;SDS011;33950;48.154;16.316;2022-07-24T04:42:46;11.75;;;8.18;;
48161;SDS011;33950;48.154;16.316;2022-07-24T04:45:13;11.27;;;7.75;;
48161;SDS011;33950;48.154;16.316;2022-07-24T04:47:39;12.05;;;8.20;;
48161;SDS011;33950;48.154;16.316;2022-07-24T04:50:05;14.07;;;8.50;;
48161;SDS011;33950;48.154;16.316;2022-07-24T04:52:32;12.30;;;8.60;;
48161;SDS011;33950;48.154;16.316;2022-07-24T04:54:58;13.68;;;8.32;;
48161;SDS011;33950;48.154;16.316;2022-07-24T04:57:24;12.00;;;8.52;;
48161;SDS011;33950;48.154;16.316;2022-07-24T04:59:49;12.20;;;8.25;;
48161;SDS011;33950;48.154;16.316;2022-07-24T05:02:16;12.95;;;8.57;;
48161;SDS011;33950;48.154;16.316;2022-07-24T05:04:42;10.45;;;8.52;;
48161;SDS011;33950;48.154;16.316;2022-07-24T05:07:08;11.18;;;7.82;;
48161;SDS011;33950;48.154;16.316;2022-07-24T05:09:34;13.35;;;8.18;;
48161;SDS011;33950;48.154;16.316;2022-07-24T05:12:00;13.40;;;9.00;;
48161;SDS011;33950;48.154;16.316;2022-07-24T05:14:26;12.45;;;8.38;;
48161;SDS011;33950;48.154;16.316;2022-07-24T05:16:51;10.57;;;8.27;;
48161;SDS011;33950;48.154;16.316;2022-07-24T05:19:18;13.00;;;8.77;;
48161;SDS011;33950;48.154;16.316;2022-07-24T05:21:44;11.82;;;8.18;;
48161;SDS011;33950;48.154;16.316;2022-07-24T05:24:10;9.10;;;8.07;;
48161;SDS011;33950;48.154;16.316;2022-07-24T05:26:36;10.90;;;7.55;;
48161;SDS011;33950;48.154;16.316;2022-07-24T05:29:02;10.35;;;7.93;;
48161;SDS011;33950;48.154;16.316;2022-07-24T05:31:31;13.15;;;8.43;;
48161;SDS011;33950;48.154;16.316;2022-07-24T05:33:57;11.23;;;7.90;;
48161;SDS011;33950;48.154;16.316;2022-07-24T05:36:24;12.38;;;7.45;;
48161;SDS011;33950;48.154;16.316;2022-07-24T05:38:50;9.65;;;7.05;;
48161;SDS011;33950;48.154;16.316;2022-07-24T05:41:16;10.75;;;8.05;;
48161;SDS011;33950;48.154;16.316;2022-07-24T05:43:42;8.75;;;7.78;;
48161;SDS011;33950;48.154;16.316;2022-07-24T05:46:08;9.07;;;7.68;;
48161;SDS011;33950;48.154;16.316;2022-07-24T05:48:34;15.55;;;7.22;;
48161;SDS011;33950;48.154;16.316;2022-07-24T05:50:59;9.27;;;7.15;;
48161;SDS011;33950;48.154;16.316;2022-07-24T05:53:27;14.23;;;7.50;;
48161;SDS011;33950;48.154;16.316;2022-07-24T05:55:52;11.45;;;7.20;;
48161;SDS011;33950;48.154;16.316;2022-07-24T05:58:18;8.77;;;7.10;;
48161;SDS011;33950;48.154;16.316;2022-07-24T06:00:44;11.68;;;6.90;;
48161;SDS011;33950;48.154;16.316;2022-07-24T06:03:11;9.30;;;6.82;;
48161;SDS011;33950;48.154;16.316;2022-07-24T06:05:37;9.68;;;6.80;;
48161;SDS011;33950;48.154;16.316;2022-07-24T06:08:03;9.57;;;6.75;;
48161;SDS011;33950;48.154;16.316;2022-07-24T06:10:31;11.05;;;7.60;;
48161;SDS011;33950;48.154;16.316;2022-07-24T06:12:57;15.25;;;7.18;;
48161;SDS011;33950;48.154;16.316;2022-07-24T06:15:23;10.20;;;7.10;;
48161;SDS011;33950;48.154;16.316;2022-07-24T06:17:49;9.00;;;7.00;;
48161;SDS011;33950;48.154;16.316;2022-07-24T06:20:15;8.73;;;6.65;;
48161;SDS011;33950;48.154;16.316;2022-07-24T06:22:42;14.27;;;6.25;;
48161;SDS011;33950;48.154;16.316;2022-07-24T06:25:09;11.50;;;6.82;;
48161;SDS011;33950;48.154;16.316;2022-07-24T06:27:40;9.77;;;6.55;;
48161;SDS011;33950;48.154;16.316;2022-07-24T06:30:07;17.02;;;6.78;;
48161;SDS011;33950;48.154;16.316;2022-07-24T06:32:36;12.82;;;6.75;;
48161;SDS011;33950;48.154;16.316;2022-07-24T06:35:02;8.45;;;6.20;;
48161;SDS011;33950;48.154;16.316;2022-07-24T06:37:29;9.52;;;6.95;;
48161;SDS011;33950;48.154;16.316;2022-07-24T06:39:54;11.18;;;6.80;;
48161;SDS011;33950;48.154;16.316;2022-07-24T06:42:20;9.88;;;6.15;;
48161;SDS011;33950;48.154;16.316;2022-07-24T06:44:47;8.77;;;6.57;;
48161;SDS011;33950;48.154;16.316;2022-07-24T06:47:13;10.55;;;6.07;;
48161;SDS011;33950;48.154;16.316;2022-07-24T06:49:39;8.38;;;6.30;;
48161;SDS011;33950;48.154;16.316;2022-07-24T06:52:04;15.07;;;6.38;;
48161;SDS011;33950;48.154;16.316;2022-07-24T06:54:30;6.80;;;5.68;;
48161;SDS011;33950;48.154;16.316;2022-07-24T06:56:56;8.85;;;6.45;;
48161;SDS011;33950;48.154;16.316;2022-07-24T06:59:22;9.25;;;5.80;;
48161;SDS011;33950;48.154;16.316;2022-07-24T07:01:49;9.73;;;6.35;;
48161;SDS011;33950;48.154;16.316;2022-07-24T07:04:15;6.97;;;6.00;;
48161;SDS011;33950;48.154;16.316;2022-07-24T07:06:41;7.60;;;6.03;;
48161;SDS011;33950;48.154;16.316;2022-07-24T07:09:06;8.57;;;6.65;;
48161;SDS011;33950;48.154;16.316;2022-07-24T07:11:32;14.60;;;7.55;;
48161;SDS011;33950;48.154;16.316;2022-07-24T07:13:58;14.23;;;5.72;;
48161;SDS011;33950;48.154;16.316;2022-07-24T07:16:24;6.75;;;6.05;;
48161;SDS011;33950;48.154;16.316;2022-07-24T07:18:51;8.98;;;6.47;;
48161;SDS011;33950;48.154;16.316;2022-07-24T07:21:17;8.10;;;6.25;;
48161;SDS011;33950;48.154;16.316;2022-07-24T07:23:43;7.07;;;6.30;;
48161;SDS011;33950;48.154;16.316;2022-07-24T07:26:08;9.40;;;5.55;;
48161;SDS011;33950;48.154;16.316;2022-07-24T07:28:34;26.27;;;6.32;;
48161;SDS011;33950;48.154;16.316;2022-07-24T07:31:00;10.05;;;6.25;;
48161;SDS011;33950;48.154;16.316;2022-07-24T07:33:26;9.00;;;6.00;;
48161;SDS011;33950;48.154;16.316;2022-07-24T07:35:53;8.73;;;5.88;;
48161;SDS011;33950;48.154;16.316;2022-07-24T07:38:19;9.68;;;4.90;;
48161;SDS011;33950;48.154;16.316;2022-07-24T07:40:45;5.53;;;4.68;;
48161;SDS011;33950;48.154;16.316;2022-07-24T07:43:11;6.10;;;4.72;;
48161;SDS011;33950;48.154;16.316;2022-07-24T07:45:37;12.95;;;5.47;;
48161;SDS011;33950;48.154;16.316;2022-07-24T07:48:03;5.88;;;4.88;;
48161;SDS011;33950;48.154;16.316;2022-07-24T07:50:29;7.88;;;5.32;;
48161;SDS011;33950;48.154;16.316;2022-07-24T07:52:56;13.57;;;5.15;;
48161;SDS011;33950;48.154;16.316;2022-07-24T07:55:22;6.15;;;5.40;;
48161;SDS011;33950;48.154;16.316;2022-07-24T07:57:48;8.70;;;5.05;;
48161;SDS011;33950;48.154;16.316;2022-07-24T08:00:14;8.10;;;4.85;;
48161;SDS011;33950;48.154;16.316;2022-07-24T08:02:41;9.95;;;4.93;;
48161;SDS011;33950;48.154;16.316;2022-07-24T08:05:07;7.70;;;4.95;;
48161;SDS011;33950;48.154;16.316;2022-07-24T08:07:34;6.75;;;5.20;;
48161;SDS011;33950;48.154;16.316;2022-07-24T08:10:02;7.50;;;4.88;;
48161;SDS011;33950;48.154;16.316;2022-07-24T08:12:28;6.05;;;4.25;;
48161;SDS011;33950;48.154;16.316;2022-07-24T08:14:54;6.32;;;4.95;;
48161;SDS011;33950;48.154;16.316;2022-07-24T08:17:20;10.45;;;4.75;;
48161;SDS011;33950;48.154;16.316;2022-07-24T08:19:45;24.58;;;4.65;;
48161;SDS011;33950;48.154;16.316;2022-07-24T08:22:11;8.82;;;4.40;;
48161;SDS011;33950;48.154;16.316;2022-07-24T08:24:38;8.10;;;4.18;;
48161;SDS011;33950;48.154;16.316;2022-07-24T08:27:06;6.97;;;4.70;;
48161;SDS011;33950;48.154;16.316;2022-07-24T08:29:32;6.70;;;4.55;;
48161;SDS011;33950;48.154;16.316;2022-07-24T08:32:00;6.18;;;4.47;;
48161;SDS011;33950;48.154;16.316;2022-07-24T08:34:28;7.75;;;4.55;;
48161;SDS011;33950;48.154;16.316;2022-07-24T08:36:57;5.25;;;4.38;;
48161;SDS011;33950;48.154;16.316;2022-07-24T08:39:23;12.98;;;4.63;;
48161;SDS011;33950;48.154;16.316;2022-07-24T08:41:51;7.93;;;4.80;;
48161;SDS011;33950;48.154;16.316;2022-07-24T08:44:18;5.25;;;4.30;;
48161;SDS011;33950;48.154;16.316;2022-07-24T08:46:44;5.93;;;4.35;;
48161;SDS011;33950;48.154;16.316;2022-07-24T08:49:13;6.65;;;4.63;;
48161;SDS011;33950;48.154;16.316;2022-07-24T08:51:40;5.60;;;4.15;;
48161;SDS011;33950;48.154;16.316;2022-07-24T08:54:10;4.63;;;3.97;;
48161;SDS011;33950;48.154;16.316;2022-07-24T08:56:39;6.38;;;4.68;;
48161;SDS011;33950;48.154;16.316;2022-07-24T08:59:16;8.45;;;4.18;;
48161;SDS011;33950;48.154;16.316;2022-07-24T09:01:47;7.68;;;4.50;;
48161;SDS011;33950;48.154;16.316;2022-07-24T09:06:59;9.48;;;4.15;;
48161;SDS011;33950;48.154;16.316;2022-07-24T09:09:30;8.47;;;3.87;;
48161;SDS011;33950;48.154;16.316;2022-07-24T09:12:03;5.97;;;4.10;;
48161;SDS011;33950;48.154;16.316;2022-07-24T09:14:30;5.70;;;4.20;;
48161;SDS011;33950;48.154;16.316;2022-07-24T09:17:02;7.22;;;4.85;;
48161;SDS011;33950;48.154;16.316;2022-07-24T09:19:29;7.82;;;4.10;;
48161;SDS011;33950;48.154;16.316;2022-07-24T09:21:55;6.18;;;4.80;;
48161;SDS011;33950;48.154;16.316;2022-07-24T09:24:21;6.60;;;3.70;;
48161;SDS011;33950;48.154;16.316;2022-07-24T09:26:47;10.93;;;4.68;;
48161;SDS011;33950;48.154;16.316;2022-07-24T09:29:15;9.52;;;4.38;;
48161;SDS011;33950;48.154;16.316;2022-07-24T09:31:55;9.30;;;4.28;;
48161;SDS011;33950;48.154;16.316;2022-07-24T09:34:23;10.73;;;3.80;;
48161;SDS011;33950;48.154;16.316;2022-07-24T09:36:55;5.28;;;3.55;;
48161;SDS011;33950;48.154;16.316;2022-07-24T09:39:25;4.95;;;3.72;;
48161;SDS011;33950;48.154;16.316;2022-07-24T09:41:52;17.42;;;3.83;;
48161;SDS011;33950;48.154;16.316;2022-07-24T09:44:19;7.60;;;3.92;;
48161;SDS011;33950;48.154;16.316;2022-07-24T09:46:45;3.95;;;3.42;;
48161;SDS011;33950;48.154;16.316;2022-07-24T09:49:18;5.78;;;3.60;;
48161;SDS011;33950;48.154;16.316;2022-07-24T09:51:46;4.30;;;3.30;;
48161;SDS011;33950;48.154;16.316;2022-07-24T09:54:37;7.50;;;3.95;;
48161;SDS011;33950;48.154;16.316;2022-07-24T09:57:14;5.95;;;3.63;;
48161;SDS011;33950;48.154;16.316;2022-07-24T09:59:45;5.47;;;3.55;;
48161;SDS011;33950;48.154;16.316;2022-07-24T10:02:13;6.10;;;3.58;;
48161;SDS011;33950;48.154;16.316;2022-07-24T10:04:41;7.50;;;3.30;;
48161;SDS011;33950;48.154;16.316;2022-07-24T10:07:10;5.35;;;3.35;;
48161;SDS011;33950;48.154;16.316;2022-07-24T10:09:39;5.53;;;3.30;;
48161;SDS011;33950;48.154;16.316;2022-07-24T10:12:09;4.85;;;3.33;;
48161;SDS011;33950;48.154;16.316;2022-07-24T10:14:38;6.45;;;3.28;;
48161;SDS011;33950;48.154;16.316;2022-07-24T10:17:05;4.25;;;3.55;;
48161;SDS011;33950;48.154;16.316;2022-07-24T10:19:36;4.43;;;3.40;;
48161;SDS011;33950;48.154;16.316;2022-07-24T10:22:08;7.78;;;3.72;;
48161;SDS011;33950;48.154;16.316;2022-07-24T10:24:56;6.85;;;3.30;;
48161;SDS011;33950;48.154;16.316;2022-07-24T10:27:23;7.20;;;3.70;;
48161;SDS011;33950;48.154;16.316;2022-07-24T10:29:52;4.75;;;4.25;;
48161;SDS011;33950;48.154;16.316;2022-07-24T10:32:19;6.28;;;3.50;;
48161;SDS011;33950;48.154;16.316;2022-07-24T10:34:46;4.00;;;3.20;;
48161;SDS011;33950;48.154;16.316;2022-07-24T10:37:19;6.43;;;3.40;;
48161;SDS011;33950;48.154;16.316;2022-07-24T10:39:53;7.15;;;4.10;;
48161;SDS011;33950;48.154;16.316;2022-07-24T10:42:28;5.95;;;4.03;;
48161;SDS011;33950;48.154;16.316;2022-07-24T10:45:14;4.03;;;3.60;;
48161;SDS011;33950;48.154;16.316;2022-07-24T10:47:42;5.28;;;3.83;;
48161;SDS011;33950;48.154;16.316;2022-07-24T10:50:08;3.45;;;2.83;;
48161;SDS011;33950;48.154;16.316;2022-07-24T10:52:35;5.90;;;2.88;;
48161;SDS011;33950;48.154;16.316;2022-07-24T10:55:21;4.63;;;3.42;;
48161;SDS011;33950;48.154;16.316;2022-07-24T10:57:52;6.60;;;3.45;;
48161;SDS011;33950;48.154;16.316;2022-07-24T11:00:20;5.05;;;2.92;;
48161;SDS011;33950;48.154;16.316;2022-07-24T11:02:54;3.42;;;3.08;;
48161;SDS011;33950;48.154;16.316;2022-07-24T11:05:25;6.65;;;3.88;;
48161;SDS011;33950;48.154;16.316;2022-07-24T11:11:09;4.93;;;3.10;;
48161;SDS011;33950;48.154;16.316;2022-07-24T11:13:39;5.55;;;3.20;;
48161;SDS011;33950;48.154;16.316;2022-07-24T11:16:17;4.70;;;3.13;;
48161;SDS011;33950;48.154;16.316;2022-07-24T11:21:44;4.55;;;3.40;;
48161;SDS011;33950;48.154;16.316;2022-07-24T11:24:15;5.03;;;3.20;;
48161;SDS011;33950;48.154;16.316;2022-07-24T11:26:49;3.75;;;3.13;;
48161;SDS011;33950;48.154;16.316;2022-07-24T11:29:16;3.38;;;3.05;;
48161;SDS011;33950;48.154;16.316;2022-07-24T11:31:43;6.03;;;3.35;;
48161;SDS011;33950;48.154;16.316;2022-07-24T11:34:10;7.78;;;3.63;;
48161;SDS011;33950;48.154;16.316;2022-07-24T11:36:39;5.43;;;3.25;;
48161;SDS011;33950;48.154;16.316;2022-07-24T11:39:06;6.28;;;3.72;;
48161;SDS011;33950;48.154;16.316;2022-07-24T11:41:42;7.20;;;4.13;;
48161;SDS011;33950;48.154;16.316;2022-07-24T11:44:11;3.97;;;3.28;;
48161;SDS011;33950;48.154;16.316;2022-07-24T11:46:37;4.47;;;3.00;;
48161;SDS011;33950;48.154;16.316;2022-07-24T11:49:05;4.53;;;3.22;;
48161;SDS011;33950;48.154;16.316;2022-07-24T11:51:32;3.20;;;2.90;;
48161;SDS011;33950;48.154;16.316;2022-07-24T11:54:05;3.70;;;3.20;;
48161;SDS011;33950;48.154;16.316;2022-07-24T11:56:30;10.40;;;3.35;;
48161;SDS011;33950;48.154;16.316;2022-07-24T11:58:57;8.18;;;3.33;;
48161;SDS011;33950;48.154;16.316;2022-07-24T12:01:25;3.55;;;3.17;;
48161;SDS011;33950;48.154;16.316;2022-07-24T12:03:51;5.40;;;3.90;;
48161;SDS011;33950;48.154;16.316;2022-07-24T12:06:17;4.30;;;3.30;;
48161;SDS011;33950;48.154;16.316;2022-07-24T12:08:43;6.15;;;3.78;;
48161;SDS011;33950;48.154;16.316;2022-07-24T12:11:09;4.00;;;3.60;;
48161;SDS011;33950;48.154;16.316;2022-07-24T12:13:36;6.55;;;3.38;;
48161;SDS011;33950;48.154;16.316;2022-07-24T12:16:08;3.67;;;3.38;;
48161;SDS011;33950;48.154;16.316;2022-07-24T12:18:36;8.50;;;3.75;;
48161;SDS011;33950;48.154;16.316;2022-07-24T12:21:02;8.32;;;3.78;;
48161;SDS011;33950;48.154;16.316;2022-07-24T12:23:28;5.88;;;3.67;;
48161;SDS011;33950;48.154;16.316;2022-07-24T12:25:54;5.05;;;3.75;;
48161;SDS011;33950;48.154;16.316;2022-07-24T12:28:20;4.82;;;3.50;;
48161;SDS011;33950;48.154;16.316;2022-07-24T12:30:47;8.32;;;4.05;;
48161;SDS011;33950;48.154;16.316;2022-07-24T12:33:19;4.53;;;3.85;;
48161;SDS011;33950;48.154;16.316;2022-07-24T12:35:54;5.32;;;3.60;;
48161;SDS011;33950;48.154;16.316;2022-07-24T12:38:24;7.20;;;4.18;;
48161;SDS011;33950;48.154;16.316;2022-07-24T12:40:51;4.63;;;3.78;;
48161;SDS011;33950;48.154;16.316;2022-07-24T12:43:26;6.70;;;4.30;;
48161;SDS011;33950;48.154;16.316;2022-07-24T12:46:03;5.75;;;3.70;;
48161;SDS011;33950;48.154;16.316;2022-07-24T12:48:30;4.60;;;4.20;;
48161;SDS011;33950;48.154;16.316;2022-07-24T12:53:42;4.72;;;3.38;;
48161;SDS011;33950;48.154;16.316;2022-07-24T12:56:09;5.80;;;3.58;;
48161;SDS011;33950;48.154;16.316;2022-07-24T13:01:46;5.80;;;3.38;;
48161;SDS011;33950;48.154;16.316;2022-07-24T13:04:13;8.00;;;3.72;;
48161;SDS011;33950;48.154;16.316;2022-07-24T13:06:43;7.25;;;3.25;;
48161;SDS011;33950;48.154;16.316;2022-07-24T13:09:12;5.68;;;3.33;;
48161;SDS011;33950;48.154;16.316;2022-07-24T13:11:39;3.97;;;3.42;;
48161;SDS011;33950;48.154;16.316;2022-07-24T13:14:06;6.55;;;3.63;;
48161;SDS011;33950;48.154;16.316;2022-07-24T13:16:34;6.53;;;3.72;;
48161;SDS011;33950;48.154;16.316;2022-07-24T13:19:02;4.25;;;3.72;;
48161;SDS011;33950;48.154;16.316;2022-07-24T13:21:29;5.80;;;4.80;;
48161;SDS011;33950;48.154;16.316;2022-07-24T13:23:56;7.45;;;4.00;;
48161;SDS011;33950;48.154;16.316;2022-07-24T13:26:22;8.70;;;5.03;;
48161;SDS011;33950;48.154;16.316;2022-07-24T13:28:49;13.73;;;6.88;;
48161;SDS011;33950;48.154;16.316;2022-07-24T13:31:15;5.88;;;3.45;;
48161;SDS011;33950;48.154;16.316;2022-07-24T13:33:44;9.98;;;5.35;;
48161;SDS011;33950;48.154;16.316;2022-07-24T13:36:10;14.95;;;4.32;;
48161;SDS011;33950;48.154;16.316;2022-07-24T13:38:37;9.65;;;3.95;;
48161;SDS011;33950;48.154;16.316;2022-07-24T13:41:04;3.97;;;3.60;;
48161;SDS011;33950;48.154;16.316;2022-07-24T13:43:30;3.72;;;3.33;;
48161;SDS011;33950;48.154;16.316;2022-07-24T13:45:56;5.03;;;3.63;;
48161;SDS011;33950;48.154;16.316;2022-07-24T13:48:22;4.10;;;3.67;;
48161;SDS011;33950;48.154;16.316;2022-07-24T13:50:47;6.68;;;3.85;;
48161;SDS011;33950;48.154;16.316;2022-07-24T13:53:14;4.53;;;3.80;;
48161;SDS011;33950;48.154;16.316;2022-07-24T13:55:40;6.00;;;3.92;;
48161;SDS011;33950;48.154;16.316;2022-07-24T13:58:07;3.53;;;3.20;;
48161;SDS011;33950;48.154;16.316;2022-07-24T14:00:33;5.20;;;3.80;;
48161;SDS011;33950;48.154;16.316;2022-07-24T14:02:58;8.05;;;3.92;;
48161;SDS011;33950;48.154;16.316;2022-07-24T14:05:24;4.43;;;3.88;;
48161;SDS011;33950;48.154;16.316;2022-07-24T14:07:51;4.90;;;3.05;;
48161;SDS011;33950;48.154;16.316;2022-07-24T14:10:18;4.70;;;3.33;;
48161;SDS011;33950;48.154;16.316;2022-07-24T14:12:44;4.32;;;3.50;;
48161;SDS011;33950;48.154;16.316;2022-07-24T14:15:11;3.67;;;3.35;;
48161;SDS011;33950;48.154;16.316;2022-07-24T14:17:37;9.32;;;3.88;;
48161;SDS011;33950;48.154;16.316;2022-07-24T14:20:04;4.97;;;3.65;;
48161;SDS011;33950;48.154;16.316;2022-07-24T14:22:32;4.55;;;3.22;;
48161;SDS011;33950;48.154;16.316;2022-07-24T14:24:58;3.65;;;3.22;;
48161;SDS011;33950;48.154;16.316;2022-07-24T14:27:24;3.95;;;3.55;;
48161;SDS011;33950;48.154;16.316;2022-07-24T14:29:50;4.03;;;3.30;;
48161;SDS011;33950;48.154;16.316;2022-07-24T14:32:17;6.95;;;3.58;;
48161;SDS011;33950;48.154;16.316;2022-07-24T14:34:43;5.55;;;3.53;;
48161;SDS011;33950;48.154;16.316;2022-07-24T14:37:08;7.43;;;3.72;;
48161;SDS011;33950;48.154;16.316;2022-07-24T14:39:34;6.00;;;3.83;;
48161;SDS011;33950;48.154;16.316;2022-07-24T14:42:00;5.03;;;3.53;;
48161;SDS011;33950;48.154;16.316;2022-07-24T14:44:26;6.60;;;3.40;;
48161;SDS011;33950;48.154;16.316;2022-07-24T14:46:51;8.52;;;4.30;;